Terminal Aerodrome Forecast
Issued by NWS Cleveland, OH

Home | Current Version | Previous Version | Text Only | Print | Product List | Glossary On
Versions: 1 2 3 4 5 6 7 8 9 10 11 12 13 14 15 16 17 18 19 20
000
FTUS41 KCLE 040100 AAA
TAFCAK
TAF AMD
KCAK 040147Z 0402/0424 28015G25KT P6SM OVC008
     FM040700 28008KT P6SM OVC008
     FM041600 29007KT P6SM OVC015=

USA.gov is the U.S. government's official web portal to all federal, state and local government web resources and services.